OAL017 LGAV-LICJ
Flight info
| Callsign | OAL017 |
|---|---|
| Flight time | 1h 33m |
| Altitude | 36000 |
| Route | KOR UN604 ARA DCT RUTOM/N0454F350 DCT PELEN L869 PAL |
| Aircraft | B38M/M-SDE1FGHILORVWXY/HB1 |
Departure
| Time | 2026-05-07 23:00 |
|---|---|
| Airport | Athens Eleftherios Venizelos International Airport (LGAV) |
Arrival
| Time | 2026-05-08 00:34 |
|---|---|
| Airport | Falcone–Borsellino Airport (LICJ) |
| Time | Latitude | Longitude | Altitude | Speed | Heading |
|---|---|---|---|---|---|
| 2026-05-07 22:51 | 37.94114 | 23.95376 | 303 ft | 0 kts | 218° |
| 2026-05-07 22:53 | 37.94102 | 23.95377 | 305 ft | 4 kts | 125° |
| 2026-05-07 22:54 | 37.94109 | 23.95410 | 303 ft | 4 kts | 72° |
| 2026-05-07 22:54 | 37.94122 | 23.95458 | 304 ft | 6 kts | 72° |
| 2026-05-07 22:54 | 37.94130 | 23.95490 | 302 ft | 1 kts | 72° |
| 2026-05-07 22:54 | 37.94134 | 23.95509 | 304 ft | 4 kts | 72° |
| 2026-05-07 22:55 | 37.94146 | 23.95553 | 304 ft | 7 kts | 73° |
| 2026-05-07 22:55 | 37.94141 | 23.95581 | 303 ft | 2 kts | 130° |
| 2026-05-07 22:55 | 37.94125 | 23.95606 | 304 ft | 6 kts | 130° |
| 2026-05-07 22:55 | 37.94091 | 23.95667 | 300 ft | 11 kts | 103° |
| 2026-05-07 22:56 | 37.94144 | 23.95758 | 303 ft | 18 kts | 36° |
| 2026-05-07 22:56 | 37.94278 | 23.95881 | 304 ft | 29 kts | 36° |
| 2026-05-07 22:56 | 37.94472 | 23.96061 | 303 ft | 40 kts | 36° |
| 2026-05-07 22:56 | 37.94718 | 23.96295 | 303 ft | 49 kts | 36° |
| 2026-05-07 22:57 | 37.94935 | 23.96500 | 304 ft | 38 kts | 37° |
| 2026-05-07 22:57 | 37.95163 | 23.96716 | 307 ft | 30 kts | 37° |
| 2026-05-07 22:57 | 37.95295 | 23.96871 | 307 ft | 16 kts | 82° |
| 2026-05-07 22:57 | 37.95281 | 23.96920 | 308 ft | 0 kts | 123° |
| 2026-05-07 22:59 | 37.95261 | 23.96958 | 306 ft | 10 kts | 123° |
| 2026-05-07 22:59 | 37.95207 | 23.97024 | 309 ft | 7 kts | 175° |
| 2026-05-07 22:59 | 37.95148 | 23.96979 | 309 ft | 15 kts | 218° |
| 2026-05-07 22:59 | 37.94945 | 23.96780 | 306 ft | 72 kts | 217° |
| 2026-05-07 23:00 | 37.94335 | 23.96208 | 291 ft | 144 kts | 216° |
| 2026-05-07 23:00 | 37.93405 | 23.95332 | 474 ft | 185 kts | 216° |
| 2026-05-07 23:00 | 37.92365 | 23.94345 | 1340 ft | 185 kts | 211° |
| 2026-05-07 23:00 | 37.91194 | 23.93641 | 2176 ft | 191 kts | 200° |
| 2026-05-07 23:01 | 37.89927 | 23.93008 | 2403 ft | 208 kts | 207° |
| 2026-05-07 23:01 | 37.88598 | 23.92076 | 2990 ft | 227 kts | 209° |
| 2026-05-07 23:01 | 37.87171 | 23.91074 | 3650 ft | 240 kts | 209° |
| 2026-05-07 23:01 | 37.85708 | 23.90055 | 4620 ft | 241 kts | 208° |
| 2026-05-07 23:02 | 37.84227 | 23.89030 | 5568 ft | 243 kts | 208° |
| 2026-05-07 23:02 | 37.82734 | 23.88002 | 6479 ft | 247 kts | 208° |
| 2026-05-07 23:02 | 37.81201 | 23.86949 | 7244 ft | 254 kts | 209° |
| 2026-05-07 23:02 | 37.79678 | 23.85795 | 8088 ft | 256 kts | 223° |
| 2026-05-07 23:03 | 37.78720 | 23.83914 | 8809 ft | 260 kts | 257° |
| 2026-05-07 23:03 | 37.78711 | 23.81659 | 9717 ft | 259 kts | 279° |
| 2026-05-07 23:03 | 37.79038 | 23.79382 | 10400 ft | 266 kts | 281° |
| 2026-05-07 23:03 | 37.79399 | 23.77066 | 11095 ft | 275 kts | 282° |
| 2026-05-07 23:04 | 37.79673 | 23.75465 | 11366 ft | 288 kts | 282° |
| 2026-05-07 23:04 | 37.80108 | 23.72894 | 11740 ft | 309 kts | 282° |
| 2026-05-07 23:04 | 37.80563 | 23.70174 | 12247 ft | 323 kts | 282° |
| 2026-05-07 23:04 | 37.81028 | 23.67386 | 13048 ft | 326 kts | 282° |
| 2026-05-07 23:05 | 37.81495 | 23.64576 | 13938 ft | 328 kts | 282° |
| 2026-05-07 23:05 | 37.81966 | 23.61734 | 14711 ft | 332 kts | 281° |
| 2026-05-07 23:05 | 37.82441 | 23.58864 | 15499 ft | 335 kts | 281° |
| 2026-05-07 23:05 | 37.82922 | 23.55955 | 16253 ft | 340 kts | 281° |
| 2026-05-07 23:06 | 37.83407 | 23.53013 | 16986 ft | 344 kts | 281° |
| 2026-05-07 23:06 | 37.83898 | 23.50036 | 17736 ft | 348 kts | 281° |
| 2026-05-07 23:06 | 37.84393 | 23.47024 | 18439 ft | 352 kts | 281° |
| 2026-05-07 23:06 | 37.84894 | 23.43975 | 19061 ft | 355 kts | 281° |
| 2026-05-07 23:07 | 37.85396 | 23.40905 | 19714 ft | 358 kts | 280° |
| 2026-05-07 23:07 | 37.85903 | 23.37811 | 20348 ft | 360 kts | 280° |
| 2026-05-07 23:07 | 37.86410 | 23.34708 | 20976 ft | 363 kts | 280° |
| 2026-05-07 23:07 | 37.86922 | 23.31568 | 21598 ft | 366 kts | 280° |
| 2026-05-07 23:08 | 37.87437 | 23.28404 | 22209 ft | 368 kts | 280° |
| 2026-05-07 23:08 | 37.87955 | 23.25212 | 22821 ft | 371 kts | 280° |
| 2026-05-07 23:08 | 37.88476 | 23.22000 | 23420 ft | 374 kts | 280° |
| 2026-05-07 23:08 | 37.88993 | 23.18807 | 23945 ft | 377 kts | 280° |
| 2026-05-07 23:09 | 37.89520 | 23.15544 | 24456 ft | 378 kts | 280° |
| 2026-05-07 23:09 | 37.90047 | 23.12279 | 24981 ft | 380 kts | 281° |
| 2026-05-07 23:09 | 37.90575 | 23.08994 | 25489 ft | 381 kts | 281° |
| 2026-05-07 23:09 | 37.91101 | 23.05726 | 26009 ft | 382 kts | 281° |
| 2026-05-07 23:10 | 37.91631 | 23.02420 | 26516 ft | 383 kts | 281° |
| 2026-05-07 23:10 | 37.92160 | 22.99114 | 26993 ft | 384 kts | 281° |
| 2026-05-07 23:10 | 37.92690 | 22.95796 | 27483 ft | 385 kts | 281° |
| 2026-05-07 23:10 | 37.93167 | 22.92443 | 27947 ft | 387 kts | 279° |
| 2026-05-07 23:11 | 37.93597 | 22.89071 | 28405 ft | 389 kts | 279° |
| 2026-05-07 23:11 | 37.94037 | 22.85678 | 28859 ft | 391 kts | 279° |
| 2026-05-07 23:11 | 37.94480 | 22.82272 | 29294 ft | 392 kts | 279° |
| 2026-05-07 23:11 | 37.94925 | 22.78855 | 29734 ft | 394 kts | 280° |
| 2026-05-07 23:12 | 37.95371 | 22.75417 | 30144 ft | 397 kts | 279° |
| 2026-05-07 23:12 | 37.95817 | 22.71973 | 30461 ft | 399 kts | 279° |
| 2026-05-07 23:12 | 37.96267 | 22.68495 | 30820 ft | 401 kts | 279° |
| 2026-05-07 23:12 | 37.96807 | 22.65017 | 31125 ft | 404 kts | 281° |
| 2026-05-07 23:13 | 37.97384 | 22.61525 | 31464 ft | 405 kts | 281° |
| 2026-05-07 23:13 | 37.97953 | 22.58027 | 31874 ft | 406 kts | 281° |
| 2026-05-07 23:13 | 37.98519 | 22.54518 | 32237 ft | 407 kts | 281° |
| 2026-05-07 23:13 | 37.99084 | 22.51003 | 32687 ft | 406 kts | 281° |
| 2026-05-07 23:14 | 37.99638 | 22.47552 | 33143 ft | 405 kts | 281° |
| 2026-05-07 23:14 | 38.00193 | 22.44081 | 33643 ft | 402 kts | 281° |
| 2026-05-07 23:14 | 38.00746 | 22.40621 | 34185 ft | 399 kts | 281° |
| 2026-05-07 23:14 | 38.01293 | 22.37190 | 34594 ft | 397 kts | 281° |
| 2026-05-07 23:15 | 38.01837 | 22.33772 | 35010 ft | 394 kts | 281° |
| 2026-05-07 23:15 | 38.02377 | 22.30375 | 35480 ft | 391 kts | 281° |
| 2026-05-07 23:15 | 38.02912 | 22.26997 | 35919 ft | 389 kts | 281° |
| 2026-05-07 23:15 | 38.03443 | 22.23637 | 36121 ft | 388 kts | 281° |
| 2026-05-07 23:16 | 38.03970 | 22.20302 | 36045 ft | 382 kts | 281° |
| 2026-05-07 23:16 | 38.04489 | 22.17009 | 36168 ft | 382 kts | 281° |
| 2026-05-07 23:16 | 38.05010 | 22.13689 | 36146 ft | 384 kts | 281° |
| 2026-05-07 23:17 | 38.06043 | 22.07102 | 36119 ft | 380 kts | 281° |
| 2026-05-07 23:17 | 38.07071 | 22.00526 | 36120 ft | 380 kts | 281° |
| 2026-05-07 23:18 | 38.08092 | 21.93963 | 36136 ft | 380 kts | 281° |
| 2026-05-07 23:18 | 38.09111 | 21.87388 | 36108 ft | 380 kts | 281° |
| 2026-05-07 23:19 | 38.10127 | 21.80809 | 36106 ft | 380 kts | 281° |
| 2026-05-07 23:19 | 38.11136 | 21.74248 | 36115 ft | 377 kts | 281° |
| 2026-05-07 23:20 | 38.12136 | 21.67725 | 36111 ft | 376 kts | 281° |
| 2026-05-07 23:20 | 38.13131 | 21.61202 | 36114 ft | 376 kts | 281° |
| 2026-05-07 23:21 | 38.14123 | 21.54680 | 36127 ft | 376 kts | 281° |
| 2026-05-07 23:21 | 38.15111 | 21.48163 | 36128 ft | 376 kts | 281° |
| 2026-05-07 23:22 | 38.16108 | 21.41691 | 36131 ft | 376 kts | 281° |
| 2026-05-07 23:22 | 38.17142 | 21.35180 | 36135 ft | 376 kts | 281° |
| 2026-05-07 23:23 | 38.18170 | 21.28670 | 36130 ft | 376 kts | 281° |
| 2026-05-07 23:23 | 38.19196 | 21.22154 | 36129 ft | 376 kts | 281° |
| 2026-05-07 23:24 | 38.20215 | 21.15652 | 36119 ft | 376 kts | 281° |
| 2026-05-07 23:24 | 38.21230 | 21.09150 | 36118 ft | 373 kts | 281° |
| 2026-05-07 23:25 | 38.22233 | 21.02703 | 36118 ft | 372 kts | 281° |
| 2026-05-07 23:25 | 38.23233 | 20.96247 | 36116 ft | 372 kts | 281° |
| 2026-05-07 23:26 | 38.24228 | 20.89801 | 36116 ft | 372 kts | 281° |
| 2026-05-07 23:26 | 38.25219 | 20.83360 | 36119 ft | 372 kts | 281° |
| 2026-05-07 23:27 | 38.26699 | 20.73692 | 36113 ft | 370 kts | 281° |
| 2026-05-07 23:27 | 38.27676 | 20.67273 | 36113 ft | 370 kts | 281° |
| 2026-05-07 23:28 | 38.28645 | 20.60890 | 36119 ft | 370 kts | 281° |
| 2026-05-07 23:28 | 38.29621 | 20.54428 | 36110 ft | 370 kts | 281° |
| 2026-05-07 23:29 | 38.30587 | 20.48015 | 36120 ft | 369 kts | 281° |
| 2026-05-07 23:29 | 38.31539 | 20.41666 | 36112 ft | 365 kts | 282° |
| 2026-05-07 23:30 | 38.32488 | 20.35314 | 36104 ft | 365 kts | 282° |
| 2026-05-07 23:30 | 38.33435 | 20.28953 | 36113 ft | 365 kts | 282° |
| 2026-05-07 23:31 | 38.34376 | 20.22606 | 36110 ft | 365 kts | 282° |
| 2026-05-07 23:31 | 38.35314 | 20.16250 | 36107 ft | 365 kts | 282° |
| 2026-05-07 23:32 | 38.36248 | 20.09904 | 36110 ft | 363 kts | 282° |
| 2026-05-07 23:32 | 38.37172 | 20.03591 | 36107 ft | 362 kts | 282° |
| 2026-05-07 23:33 | 38.38093 | 19.97282 | 36107 ft | 362 kts | 282° |
| 2026-05-07 23:33 | 38.39009 | 19.90982 | 36104 ft | 362 kts | 282° |
| 2026-05-07 23:34 | 38.39922 | 19.84676 | 36105 ft | 362 kts | 282° |
| 2026-05-07 23:34 | 38.40832 | 19.78370 | 36106 ft | 361 kts | 282° |
| 2026-05-07 23:35 | 38.41733 | 19.72095 | 36099 ft | 358 kts | 282° |
| 2026-05-07 23:35 | 38.42619 | 19.65900 | 36102 ft | 358 kts | 282° |
| 2026-05-07 23:36 | 38.43513 | 19.59625 | 36099 ft | 358 kts | 282° |
| 2026-05-07 23:36 | 38.44393 | 19.53426 | 36100 ft | 358 kts | 282° |
| 2026-05-07 23:37 | 38.45277 | 19.47178 | 36096 ft | 358 kts | 282° |
| 2026-05-07 23:37 | 38.46151 | 19.40976 | 36091 ft | 352 kts | 282° |
| 2026-05-07 23:38 | 38.47010 | 19.34850 | 36098 ft | 350 kts | 282° |
| 2026-05-07 23:38 | 38.47863 | 19.28739 | 36098 ft | 350 kts | 282° |
| 2026-05-07 23:39 | 38.48716 | 19.22617 | 36091 ft | 350 kts | 282° |
| 2026-05-07 23:39 | 38.49566 | 19.16494 | 36090 ft | 350 kts | 282° |
| 2026-05-07 23:40 | 38.50412 | 19.10374 | 36093 ft | 350 kts | 282° |
| 2026-05-07 23:40 | 38.51252 | 19.04278 | 36091 ft | 348 kts | 282° |
| 2026-05-07 23:41 | 38.51762 | 18.98140 | 36096 ft | 352 kts | 272° |
| 2026-05-07 23:41 | 38.51650 | 18.91885 | 36084 ft | 352 kts | 273° |
| 2026-05-07 23:42 | 38.51522 | 18.85629 | 36084 ft | 352 kts | 273° |
| 2026-05-07 23:42 | 38.51382 | 18.79374 | 36084 ft | 352 kts | 273° |
| 2026-05-07 23:43 | 38.51238 | 18.73136 | 36084 ft | 350 kts | 272° |
| 2026-05-07 23:43 | 38.51093 | 18.66948 | 36054 ft | 349 kts | 272° |
| 2026-05-07 23:44 | 38.50945 | 18.60813 | 36072 ft | 348 kts | 272° |
| 2026-05-07 23:44 | 38.50794 | 18.54642 | 36077 ft | 348 kts | 272° |
| 2026-05-07 23:45 | 38.50639 | 18.48473 | 36077 ft | 348 kts | 272° |
| 2026-05-07 23:45 | 38.50480 | 18.42301 | 36079 ft | 348 kts | 272° |
| 2026-05-07 23:46 | 38.50319 | 18.36145 | 36072 ft | 347 kts | 272° |
| 2026-05-07 23:46 | 38.50155 | 18.29980 | 36072 ft | 347 kts | 272° |
| 2026-05-07 23:47 | 38.49987 | 18.23823 | 36071 ft | 347 kts | 272° |
| 2026-05-07 23:47 | 38.49816 | 18.17653 | 36069 ft | 348 kts | 272° |
| 2026-05-07 23:48 | 38.49642 | 18.11490 | 36068 ft | 348 kts | 272° |
| 2026-05-07 23:48 | 38.49464 | 18.05313 | 36067 ft | 348 kts | 272° |
| 2026-05-07 23:49 | 38.49284 | 17.99157 | 36064 ft | 348 kts | 272° |
| 2026-05-07 23:49 | 38.49099 | 17.92982 | 36064 ft | 348 kts | 272° |
| 2026-05-07 23:50 | 38.48912 | 17.86809 | 36059 ft | 348 kts | 272° |
| 2026-05-07 23:50 | 38.48721 | 17.80638 | 36061 ft | 348 kts | 271° |
| 2026-05-07 23:51 | 38.48528 | 17.74466 | 36063 ft | 348 kts | 271° |
| 2026-05-07 23:51 | 38.48330 | 17.68299 | 36060 ft | 348 kts | 271° |
| 2026-05-07 23:52 | 38.48130 | 17.62126 | 36056 ft | 348 kts | 271° |
| 2026-05-07 23:52 | 38.47926 | 17.55952 | 36053 ft | 348 kts | 271° |
| 2026-05-07 23:53 | 38.47754 | 17.50821 | 36054 ft | 348 kts | 271° |
| 2026-05-07 23:53 | 38.47544 | 17.44627 | 36052 ft | 351 kts | 271° |
| 2026-05-07 23:54 | 38.47329 | 17.38402 | 36063 ft | 352 kts | 270° |
| 2026-05-07 23:54 | 38.47111 | 17.32171 | 36055 ft | 351 kts | 270° |
| 2026-05-07 23:55 | 38.46889 | 17.25937 | 36056 ft | 352 kts | 270° |
| 2026-05-07 23:55 | 38.46666 | 17.19744 | 36050 ft | 352 kts | 270° |
| 2026-05-07 23:56 | 38.46437 | 17.13512 | 36055 ft | 352 kts | 270° |
| 2026-05-07 23:56 | 38.46206 | 17.07287 | 36054 ft | 352 kts | 270° |
| 2026-05-07 23:57 | 38.45971 | 17.01048 | 36048 ft | 352 kts | 270° |
| 2026-05-07 23:57 | 38.45732 | 16.94800 | 36051 ft | 353 kts | 270° |
| 2026-05-07 23:58 | 38.45490 | 16.88555 | 36050 ft | 352 kts | 270° |
| 2026-05-07 23:58 | 38.45245 | 16.82305 | 36053 ft | 353 kts | 270° |
| 2026-05-07 23:59 | 38.44996 | 16.76069 | 36050 ft | 353 kts | 270° |
| 2026-05-07 23:59 | 38.44744 | 16.69823 | 36054 ft | 353 kts | 270° |
| 2026-05-08 00:00 | 38.44489 | 16.63578 | 36050 ft | 352 kts | 269° |
| 2026-05-08 00:00 | 38.44232 | 16.57374 | 36048 ft | 352 kts | 269° |
| 2026-05-08 00:01 | 38.43971 | 16.51135 | 36043 ft | 352 kts | 269° |
| 2026-05-08 00:01 | 38.43705 | 16.44890 | 36036 ft | 353 kts | 269° |
| 2026-05-08 00:02 | 38.43437 | 16.38676 | 36040 ft | 352 kts | 269° |
| 2026-05-08 00:02 | 38.43166 | 16.32443 | 36021 ft | 352 kts | 269° |
| 2026-05-08 00:03 | 38.42891 | 16.26215 | 36006 ft | 354 kts | 269° |
| 2026-05-08 00:03 | 38.42611 | 16.19936 | 36008 ft | 355 kts | 269° |
| 2026-05-08 00:04 | 38.42327 | 16.13645 | 36007 ft | 356 kts | 269° |
| 2026-05-08 00:04 | 38.42040 | 16.07353 | 35996 ft | 356 kts | 269° |
| 2026-05-08 00:05 | 38.41749 | 16.01053 | 35975 ft | 356 kts | 269° |
| 2026-05-08 00:05 | 38.41454 | 15.94753 | 35982 ft | 356 kts | 268° |
| 2026-05-08 00:06 | 38.41156 | 15.88454 | 35970 ft | 356 kts | 268° |
| 2026-05-08 00:06 | 38.40855 | 15.82157 | 35957 ft | 356 kts | 268° |
| 2026-05-08 00:07 | 38.40551 | 15.75875 | 35942 ft | 356 kts | 268° |
| 2026-05-08 00:07 | 38.40242 | 15.69575 | 35942 ft | 356 kts | 268° |
| 2026-05-08 00:08 | 38.39931 | 15.63273 | 35941 ft | 356 kts | 268° |
| 2026-05-08 00:08 | 38.39615 | 15.56966 | 35935 ft | 356 kts | 268° |
| 2026-05-08 00:09 | 38.39297 | 15.50665 | 35937 ft | 356 kts | 268° |
| 2026-05-08 00:09 | 38.38976 | 15.44372 | 35931 ft | 357 kts | 268° |
| 2026-05-08 00:10 | 38.38650 | 15.38066 | 35927 ft | 357 kts | 268° |
| 2026-05-08 00:10 | 38.38321 | 15.31756 | 35922 ft | 357 kts | 268° |
| 2026-05-08 00:11 | 38.37988 | 15.25453 | 35932 ft | 356 kts | 267° |
| 2026-05-08 00:11 | 38.37654 | 15.19166 | 35926 ft | 356 kts | 267° |
| 2026-05-08 00:12 | 38.37316 | 15.12892 | 35920 ft | 356 kts | 267° |
| 2026-05-08 00:12 | 38.37036 | 15.06614 | 35675 ft | 353 kts | 268° |
| 2026-05-08 00:13 | 38.36924 | 15.03548 | 34773 ft | 349 kts | 268° |
| 2026-05-08 00:13 | 38.36808 | 15.00480 | 34014 ft | 343 kts | 267° |
| 2026-05-08 00:13 | 38.36694 | 14.97468 | 33191 ft | 337 kts | 267° |
| 2026-05-08 00:13 | 38.36578 | 14.94469 | 32400 ft | 342 kts | 267° |
| 2026-05-08 00:14 | 38.36460 | 14.91427 | 31687 ft | 341 kts | 266° |
| 2026-05-08 00:14 | 38.36343 | 14.88439 | 30931 ft | 335 kts | 266° |
| 2026-05-08 00:14 | 38.36228 | 14.85505 | 30219 ft | 330 kts | 266° |
| 2026-05-08 00:14 | 38.36114 | 14.82616 | 29462 ft | 324 kts | 266° |
| 2026-05-08 00:15 | 38.36000 | 14.79771 | 28701 ft | 319 kts | 265° |
| 2026-05-08 00:15 | 38.35888 | 14.76969 | 27972 ft | 314 kts | 265° |
| 2026-05-08 00:15 | 38.35777 | 14.74209 | 27275 ft | 310 kts | 265° |
| 2026-05-08 00:15 | 38.35666 | 14.71481 | 26621 ft | 306 kts | 265° |
| 2026-05-08 00:16 | 38.35557 | 14.68789 | 25989 ft | 303 kts | 265° |
| 2026-05-08 00:16 | 38.35447 | 14.66123 | 25385 ft | 300 kts | 265° |
| 2026-05-08 00:16 | 38.35337 | 14.63443 | 24778 ft | 306 kts | 265° |
| 2026-05-08 00:16 | 38.35224 | 14.60722 | 24178 ft | 309 kts | 265° |
| 2026-05-08 00:17 | 38.35109 | 14.57979 | 23599 ft | 311 kts | 265° |
| 2026-05-08 00:17 | 38.34994 | 14.55216 | 22914 ft | 314 kts | 265° |
| 2026-05-08 00:17 | 38.34877 | 14.52449 | 22252 ft | 314 kts | 265° |
| 2026-05-08 00:17 | 38.34760 | 14.49681 | 21595 ft | 313 kts | 265° |
| 2026-05-08 00:18 | 38.34642 | 14.46920 | 20959 ft | 312 kts | 265° |
| 2026-05-08 00:18 | 38.34524 | 14.44167 | 20339 ft | 310 kts | 265° |
| 2026-05-08 00:18 | 38.34406 | 14.41428 | 19737 ft | 309 kts | 265° |
| 2026-05-08 00:18 | 38.34287 | 14.38695 | 19149 ft | 309 kts | 265° |
| 2026-05-08 00:19 | 38.34169 | 14.35965 | 18572 ft | 308 kts | 265° |
| 2026-05-08 00:19 | 38.34050 | 14.33246 | 17978 ft | 308 kts | 265° |
| 2026-05-08 00:19 | 38.33929 | 14.30503 | 17311 ft | 311 kts | 265° |
| 2026-05-08 00:19 | 38.33807 | 14.27747 | 16758 ft | 318 kts | 265° |
| 2026-05-08 00:20 | 38.33677 | 14.24849 | 16220 ft | 334 kts | 265° |
| 2026-05-08 00:20 | 38.33544 | 14.21849 | 15385 ft | 336 kts | 265° |
| 2026-05-08 00:20 | 38.33411 | 14.18904 | 14729 ft | 331 kts | 265° |
| 2026-05-08 00:20 | 38.33279 | 14.16001 | 14114 ft | 326 kts | 265° |
| 2026-05-08 00:21 | 38.33149 | 14.13138 | 13487 ft | 321 kts | 265° |
| 2026-05-08 00:21 | 38.33020 | 14.10319 | 12815 ft | 317 kts | 264° |
| 2026-05-08 00:21 | 38.32891 | 14.07529 | 12184 ft | 313 kts | 264° |
| 2026-05-08 00:21 | 38.32764 | 14.04777 | 11569 ft | 309 kts | 264° |
| 2026-05-08 00:22 | 38.32638 | 14.02060 | 10990 ft | 305 kts | 264° |
| 2026-05-08 00:22 | 38.32514 | 13.99391 | 10540 ft | 298 kts | 264° |
| 2026-05-08 00:22 | 38.32393 | 13.96807 | 10247 ft | 286 kts | 264° |
| 2026-05-08 00:22 | 38.32276 | 13.94326 | 10123 ft | 276 kts | 263° |
| 2026-05-08 00:23 | 38.32162 | 13.91917 | 9976 ft | 269 kts | 264° |
| 2026-05-08 00:23 | 38.32049 | 13.89562 | 9728 ft | 266 kts | 263° |
| 2026-05-08 00:23 | 38.31937 | 13.87213 | 9394 ft | 266 kts | 263° |
| 2026-05-08 00:23 | 38.31825 | 13.84870 | 9089 ft | 265 kts | 264° |
| 2026-05-08 00:24 | 38.31711 | 13.82501 | 8786 ft | 272 kts | 264° |
| 2026-05-08 00:24 | 38.31593 | 13.80075 | 8488 ft | 277 kts | 264° |
| 2026-05-08 00:24 | 38.31475 | 13.77642 | 8188 ft | 280 kts | 264° |
| 2026-05-08 00:24 | 38.31354 | 13.75156 | 7881 ft | 281 kts | 264° |
| 2026-05-08 00:25 | 38.31232 | 13.72669 | 7575 ft | 281 kts | 264° |
| 2026-05-08 00:25 | 38.31109 | 13.70185 | 7268 ft | 280 kts | 264° |
| 2026-05-08 00:25 | 38.30987 | 13.67710 | 6960 ft | 279 kts | 264° |
| 2026-05-08 00:25 | 38.30865 | 13.65246 | 6649 ft | 279 kts | 264° |
| 2026-05-08 00:26 | 38.30742 | 13.62785 | 6359 ft | 278 kts | 264° |
| 2026-05-08 00:26 | 38.30620 | 13.60333 | 6045 ft | 277 kts | 264° |
| 2026-05-08 00:26 | 38.30497 | 13.57891 | 5771 ft | 276 kts | 264° |
| 2026-05-08 00:26 | 38.30376 | 13.55483 | 5600 ft | 269 kts | 264° |
| 2026-05-08 00:27 | 38.30257 | 13.53149 | 5474 ft | 260 kts | 264° |
| 2026-05-08 00:27 | 38.30144 | 13.50912 | 5344 ft | 252 kts | 264° |
| 2026-05-08 00:27 | 38.30032 | 13.48728 | 5248 ft | 242 kts | 265° |
| 2026-05-08 00:27 | 38.29920 | 13.46630 | 5142 ft | 233 kts | 262° |
| 2026-05-08 00:28 | 38.29477 | 13.44690 | 4909 ft | 227 kts | 245° |
| 2026-05-08 00:28 | 38.28861 | 13.42849 | 4638 ft | 226 kts | 246° |
| 2026-05-08 00:28 | 38.28249 | 13.41007 | 4351 ft | 226 kts | 246° |
| 2026-05-08 00:28 | 38.27636 | 13.39163 | 4064 ft | 226 kts | 246° |
| 2026-05-08 00:29 | 38.27027 | 13.37331 | 3848 ft | 222 kts | 246° |
| 2026-05-08 00:29 | 38.26432 | 13.35545 | 3692 ft | 216 kts | 246° |
| 2026-05-08 00:29 | 38.25863 | 13.33817 | 3567 ft | 204 kts | 246° |
| 2026-05-08 00:29 | 38.25327 | 13.32206 | 3337 ft | 192 kts | 246° |
| 2026-05-08 00:30 | 38.24819 | 13.30684 | 3126 ft | 184 kts | 245° |
| 2026-05-08 00:30 | 38.24328 | 13.29216 | 2886 ft | 176 kts | 245° |
| 2026-05-08 00:30 | 38.23860 | 13.27816 | 2698 ft | 168 kts | 246° |
| 2026-05-08 00:30 | 38.23410 | 13.26476 | 2465 ft | 162 kts | 246° |
| 2026-05-08 00:31 | 38.22972 | 13.25166 | 2248 ft | 160 kts | 246° |
| 2026-05-08 00:31 | 38.22536 | 13.23865 | 2066 ft | 158 kts | 246° |
| 2026-05-08 00:31 | 38.22108 | 13.22586 | 1855 ft | 156 kts | 246° |
| 2026-05-08 00:31 | 38.21685 | 13.21325 | 1653 ft | 155 kts | 246° |
| 2026-05-08 00:32 | 38.21262 | 13.20063 | 1436 ft | 156 kts | 247° |
| 2026-05-08 00:32 | 38.20837 | 13.18794 | 1237 ft | 156 kts | 247° |
| 2026-05-08 00:32 | 38.20411 | 13.17524 | 1024 ft | 157 kts | 249° |
| 2026-05-08 00:32 | 38.19981 | 13.16241 | 810 ft | 159 kts | 249° |
| 2026-05-08 00:33 | 38.19545 | 13.14941 | 610 ft | 160 kts | 250° |
| 2026-05-08 00:33 | 38.19114 | 13.13652 | 392 ft | 157 kts | 248° |
| 2026-05-08 00:33 | 38.18686 | 13.12376 | 207 ft | 157 kts | 248° |
| 2026-05-08 00:33 | 38.18266 | 13.11121 | 65 ft | 146 kts | 247° |
| 2026-05-08 00:34 | 38.18006 | 13.10302 | 68 ft | 30 kts | 265° |
| 2026-05-08 00:34 | 38.18021 | 13.10140 | 63 ft | 11 kts | 282° |
| 2026-05-08 00:34 | 38.18044 | 13.10001 | 67 ft | 16 kts | 282° |
| 2026-05-08 00:34 | 38.18096 | 13.09879 | 66 ft | 10 kts | 343° |
| 2026-05-08 00:35 | 38.18149 | 13.09917 | 66 ft | 11 kts | 65° |
| 2026-05-08 00:35 | 38.18189 | 13.10040 | 66 ft | 13 kts | 70° |
| 2026-05-08 00:35 | 38.18219 | 13.10127 | 61 ft | 5 kts | 59° |
| 2026-05-08 00:35 | 38.18236 | 13.10137 | 68 ft | 3 kts | 10° |
| 2026-05-08 00:36 | 38.18266 | 13.10144 | 68 ft | 6 kts | 4° |
| 2026-05-08 00:36 | 38.18296 | 13.10146 | 68 ft | 1 kts | 26° |
| 2026-05-08 00:36 | 38.18313 | 13.10164 | 63 ft | 4 kts | 53° |
| 2026-05-08 00:36 | 38.18332 | 13.10194 | 65 ft | 6 kts | 46° |
| 2026-05-08 00:37 | 38.18359 | 13.10253 | 66 ft | 10 kts | 65° |
| 2026-05-08 00:37 | 38.18383 | 13.10322 | 61 ft | 1 kts | 67° |
| 2026-05-08 00:37 | 38.18394 | 13.10355 | 60 ft | 7 kts | 67° |
| 2026-05-08 00:38 | 38.18430 | 13.10465 | 63 ft | 4 kts | 67° |
| 2026-05-08 00:38 | 38.18439 | 13.10493 | 59 ft | 3 kts | 69° |
| 2026-05-08 00:38 | 38.18452 | 13.10538 | 64 ft | 8 kts | 69° |
| 2026-05-08 00:38 | 38.18459 | 13.10560 | 65 ft | 4 kts | 69° |
| 2026-05-08 00:39 | 38.18466 | 13.10585 | 60 ft | 0 kts | 69° |